Time;durP1;ratioP1;P1;durP2;ratioP2;P2;SDS_P1;SDS_P2;PMS_P1;PMS_P2;Temp;Humidity;BMP_temperature;BMP_pressure;BME280_temperature;BME280_humidity;BME280_pressure;Samples;Min_cycle;Max_cycle;Signal;HPM_P1;HPM_P2
2023/08/23 00:00:44;;;;;;;8.05;4.10;;;;;;;21.27;100.00;99040.81;5047805;28;20529;-74
2023/08/23 00:03:10;;;;;;;5.70;3.55;;;;;;;21.26;100.00;99037.22;5050310;28;20036;-74
2023/08/23 00:05:35;;;;;;;6.78;3.78;;;;;;;21.18;100.00;99032.25;5053289;28;20446;-74
2023/08/23 00:08:00;;;;;;;5.40;4.00;;;;;;;21.16;100.00;99023.41;5043823;28;20083;-74
2023/08/23 00:10:25;;;;;;;11.27;4.00;;;;;;;21.20;100.00;99036.38;5054895;28;20128;-74
2023/08/23 00:12:53;;;;;;;10.07;3.95;;;;;;;21.15;100.00;99032.78;5052000;28;20108;-74
2023/08/23 00:15:18;;;;;;;7.13;3.75;;;;;;;21.05;100.00;99033.53;5051435;28;20017;-74
2023/08/23 00:17:43;;;;;;;9.52;4.03;;;;;;;21.02;100.00;99040.41;5055471;28;20131;-74
2023/08/23 00:20:09;;;;;;;8.25;3.95;;;;;;;20.94;100.00;99024.41;5054599;28;20036;-74
2023/08/23 00:22:35;;;;;;;8.55;4.15;;;;;;;20.95;100.00;99031.56;5055567;28;20031;-74
2023/08/23 00:25:00;;;;;;;5.60;3.90;;;;;;;20.86;100.00;99024.91;5056580;28;20100;-74
2023/08/23 00:27:25;;;;;;;7.25;3.80;;;;;;;20.87;100.00;99036.72;5061115;28;20028;-74
2023/08/23 00:29:51;;;;;;;12.10;4.32;;;;;;;20.81;100.00;99027.63;5054804;28;20035;-74
2023/08/23 00:32:16;;;;;;;8.23;4.38;;;;;;;20.70;100.00;99034.16;5046014;28;20433;-74
2023/08/23 00:34:41;;;;;;;6.07;4.25;;;;;;;20.72;100.00;99027.31;5070524;28;20056;-74
2023/08/23 00:37:07;;;;;;;8.60;4.25;;;;;;;20.63;100.00;99022.56;5045411;28;20078;-73
2023/08/23 00:39:32;;;;;;;7.30;4.03;;;;;;;20.55;100.00;99037.59;5053592;28;20103;-74
2023/08/23 00:41:57;;;;;;;10.27;4.63;;;;;;;20.42;100.00;99021.53;5053770;28;20029;-74
2023/08/23 00:44:23;;;;;;;6.05;3.70;;;;;;;20.33;100.00;99027.50;5053921;28;20029;-74
2023/08/23 00:46:48;;;;;;;9.27;4.43;;;;;;;20.28;100.00;99016.47;5054680;28;20475;-74
2023/08/23 00:49:14;;;;;;;7.53;4.28;;;;;;;20.35;100.00;99040.97;5054560;28;20108;-73
2023/08/23 00:51:41;;;;;;;6.20;3.67;;;;;;;20.32;100.00;99028.59;5053500;28;20025;-74
2023/08/23 00:54:06;;;;;;;11.65;3.92;;;;;;;20.21;100.00;99029.59;5053997;28;20032;-74
2023/08/23 00:56:32;;;;;;;6.05;4.05;;;;;;;20.26;100.00;99039.81;5052643;28;20036;-73
2023/08/23 00:58:58;;;;;;;15.00;4.15;;;;;;;20.23;100.00;99038.41;5044043;28;20025;-74
2023/08/23 01:01:24;;;;;;;5.60;4.10;;;;;;;20.25;100.00;99038.13;5048234;28;20039;-74
2023/08/23 01:03:50;;;;;;;6.22;4.22;;;;;;;20.27;100.00;99036.78;5049542;28;20506;-74
2023/08/23 01:06:27;;;;;;;5.43;3.85;;;;;;;20.35;100.00;99044.53;5051437;28;20048;-74
2023/08/23 01:09:07;;;;;;;6.72;4.25;;;;;;;20.39;100.00;99044.03;5053673;28;20021;-73
2023/08/23 01:11:55;;;;;;;5.22;4.35;;;;;;;20.29;100.00;99044.78;5052959;28;20640;-74
2023/08/23 01:14:28;;;;;;;7.30;4.30;;;;;;;20.18;100.00;99041.09;5028387;28;20099;-74
2023/08/23 01:16:55;;;;;;;12.88;4.40;;;;;;;20.21;100.00;99050.75;5049696;28;20029;-74
2023/08/23 01:19:40;;;;;;;4.55;3.78;;;;;;;20.16;100.00;99051.53;5052763;28;20017;-73
2023/08/23 01:22:08;;;;;;;5.38;4.28;;;;;;;20.08;100.00;99054.75;5047844;28;20086;-74
2023/08/23 01:24:33;;;;;;;8.27;4.60;;;;;;;20.04;100.00;99048.94;5044489;28;20147;-74
2023/08/23 01:26:58;;;;;;;5.25;4.32;;;;;;;20.05;100.00;99060.75;5055352;28;20494;-74
2023/08/23 01:29:24;;;;;;;6.72;4.70;;;;;;;19.93;100.00;99047.97;5046807;28;20486;-74
2023/08/23 01:31:54;;;;;;;9.55;4.95;;;;;;;19.89;100.00;99049.59;5042331;28;20029;-74
2023/08/23 01:34:27;;;;;;;9.00;4.90;;;;;;;19.90;100.00;99056.75;5061804;28;20079;-74
2023/08/23 01:36:54;;;;;;;6.95;4.20;;;;;;;19.91;100.00;99052.94;5050452;28;20386;-74
2023/08/23 01:39:25;;;;;;;12.55;4.85;;;;;;;19.87;100.00;99050.94;5036308;28;20040;-74
2023/08/23 01:41:51;;;;;;;8.45;5.05;;;;;;;19.77;100.00;99031.63;5053289;28;20029;-74
2023/08/23 01:44:16;;;;;;;8.85;4.60;;;;;;;19.70;100.00;99049.13;5047957;28;20034;-74
2023/08/23 01:46:42;;;;;;;8.88;5.07;;;;;;;19.65;100.00;99034.50;5051238;28;20029;-74
2023/08/23 01:49:07;;;;;;;10.63;5.07;;;;;;;19.69;100.00;99047.44;5052552;28;20033;-74
2023/08/23 01:51:32;;;;;;;6.55;4.82;;;;;;;19.64;100.00;99049.28;5053652;22;20140;-74
2023/08/23 01:53:58;;;;;;;11.25;5.00;;;;;;;19.57;100.00;99038.53;5051434;28;20022;-74
2023/08/23 01:56:23;;;;;;;8.57;5.40;;;;;;;19.57;100.00;99049.50;5033936;28;20025;-73
2023/08/23 01:58:48;;;;;;;7.47;5.15;;;;;;;19.54;100.00;99041.75;5034168;28;20029;-74
2023/08/23 02:01:14;;;;;;;10.05;5.40;;;;;;;19.48;100.00;99046.34;5034634;28;20033;-74
2023/08/23 02:03:39;;;;;;;5.85;4.50;;;;;;;19.59;100.00;99052.78;5047260;28;20051;-75
2023/08/23 02:06:04;;;;;;;6.03;4.47;;;;;;;19.58;100.00;99055.81;5048551;28;20091;-74
2023/08/23 02:08:30;;;;;;;9.15;5.38;;;;;;;19.50;100.00;99043.38;5030375;28;20117;-73
2023/08/23 02:10:55;;;;;;;7.93;5.00;;;;;;;19.46;100.00;99051.25;5044944;28;20021;-74
2023/08/23 02:13:20;;;;;;;6.95;5.18;;;;;;;19.41;100.00;99050.38;5035621;28;20029;-74
2023/08/23 02:15:46;;;;;;;10.82;5.00;;;;;;;19.52;100.00;99068.66;5032901;28;20029;-75
2023/08/23 02:18:11;;;;;;;8.32;5.30;;;;;;;19.46;100.00;99064.97;5039806;28;20037;-75
2023/08/23 02:20:36;;;;;;;6.85;4.90;;;;;;;19.46;100.00;99056.75;5028705;28;20429;-72
2023/08/23 02:23:02;;;;;;;10.85;5.63;;;;;;;19.40;100.00;99049.53;5032795;28;20029;-72
2023/08/23 02:25:27;;;;;;;14.68;5.13;;;;;;;19.34;100.00;99047.84;5032565;28;20026;-73
2023/08/23 02:27:52;;;;;;;10.70;5.00;;;;;;;19.32;100.00;99041.75;5033631;28;20060;-72
2023/08/23 02:30:18;;;;;;;8.80;4.80;;;;;;;19.31;100.00;99056.56;5019386;28;20079;-73
2023/08/23 02:32:43;;;;;;;6.10;4.82;;;;;;;19.25;100.00;99058.41;5031546;28;20021;-73
2023/08/23 02:35:08;;;;;;;9.10;4.65;;;;;;;19.16;100.00;99059.94;5040391;28;20025;-73
2023/08/23 02:37:34;;;;;;;10.38;5.38;;;;;;;19.10;100.00;99054.63;5033058;28;20585;-73
2023/08/23 02:39:59;;;;;;;8.95;5.25;;;;;;;19.02;100.00;99051.25;5033410;28;20032;-73
2023/08/23 02:42:24;;;;;;;7.20;5.32;;;;;;;18.96;100.00;99052.22;5035477;28;20036;-73
2023/08/23 02:44:49;;;;;;;8.60;5.40;;;;;;;18.99;100.00;99059.97;5023647;28;20034;-73
2023/08/23 02:47:15;;;;;;;9.43;5.30;;;;;;;18.92;100.00;99045.59;5031156;28;20537;-73
2023/08/23 02:49:40;;;;;;;11.30;4.70;;;;;;;18.92;100.00;99053.84;5036356;28;20115;-73
2023/08/23 02:52:05;;;;;;;7.72;5.25;;;;;;;18.84;100.00;99059.75;5035705;28;20028;-72
2023/08/23 02:54:31;;;;;;;8.05;5.28;;;;;;;18.77;100.00;99050.84;5029706;28;20463;-71
2023/08/23 02:56:56;;;;;;;7.90;5.15;;;;;;;18.78;100.00;99058.00;5031640;28;20096;-73
2023/08/23 02:59:21;;;;;;;7.82;5.10;;;;;;;18.75;100.00;99059.31;5031013;28;20497;-73
2023/08/23 03:01:47;;;;;;;7.40;4.95;;;;;;;18.73;100.00;99053.25;5029597;28;20033;-73
2023/08/23 03:04:12;;;;;;;8.30;5.07;;;;;;;18.66;100.00;99035.31;5036553;28;20048;-72
2023/08/23 03:06:37;;;;;;;6.50;5.00;;;;;;;18.82;100.00;99057.25;5024654;28;20430;-72
2023/08/23 03:09:03;;;;;;;9.80;5.10;;;;;;;18.83;100.00;99058.91;5027369;28;20399;-75
2023/08/23 03:11:28;;;;;;;6.72;5.10;;;;;;;18.89;100.00;99058.97;5046488;28;20063;-73
2023/08/23 03:13:53;;;;;;;8.15;5.32;;;;;;;18.97;100.00;99056.66;5033168;28;20048;-79
2023/08/23 03:19:39;;;;;;;11.20;5.53;;;;;;;18.95;100.00;99075.25;5021212;28;20016;-80
2023/08/23 03:22:25;;;;;;;6.28;4.82;;;;;;;18.70;100.00;99053.72;5055676;28;20041;-80
2023/08/23 03:25:12;;;;;;;8.18;5.68;;;;;;;18.76;100.00;99076.63;5055538;28;20740;-81
2023/08/23 03:28:28;;;;;;;8.18;5.88;;;;;;;18.81;100.00;99077.53;5049654;28;20109;-79
2023/08/23 03:31:03;;;;;;;7.30;5.57;;;;;;;18.64;100.00;99062.97;5029290;28;20634;-74
2023/08/23 03:33:28;;;;;;;13.65;5.72;;;;;;;18.53;100.00;99066.63;5022447;28;20061;-73
2023/08/23 03:35:54;;;;;;;7.93;5.70;;;;;;;18.55;100.00;99054.34;5026804;28;20061;-75
2023/08/23 03:38:19;;;;;;;8.75;5.72;;;;;;;18.40;100.00;99046.69;5040127;28;20115;-74
2023/08/23 03:40:44;;;;;;;9.75;5.88;;;;;;;18.35;100.00;99037.56;5040216;28;20021;-74
2023/08/23 03:43:09;;;;;;;8.45;6.22;;;;;;;18.29;100.00;99049.50;5031662;28;20061;-75
2023/08/23 03:45:35;;;;;;;14.15;6.25;;;;;;;18.31;100.00;99059.16;5033719;28;20033;-75
2023/08/23 03:48:00;;;;;;;13.05;6.38;;;;;;;18.28;100.00;99056.88;5030377;28;20052;-72
2023/08/23 03:50:25;;;;;;;12.68;6.35;;;;;;;18.27;100.00;99054.41;5040436;28;20040;-75
2023/08/23 03:52:51;;;;;;;7.63;5.85;;;;;;;18.26;100.00;99047.25;5037162;28;20030;-73
2023/08/23 03:55:16;;;;;;;11.07;5.72;;;;;;;18.23;100.00;99042.28;5028431;28;20021;-74
2023/08/23 03:57:41;;;;;;;13.52;5.97;;;;;;;18.28;100.00;99056.88;5042681;28;20033;-74
2023/08/23 04:00:07;;;;;;;12.90;6.43;;;;;;;18.32;100.00;99047.09;5035721;28;20025;-72
2023/08/23 04:02:33;;;;;;;9.85;6.00;;;;;;;18.37;100.00;99057.31;5036074;28;20029;-74
2023/08/23 04:04:58;;;;;;;8.73;5.70;;;;;;;18.27;100.00;99047.00;5034874;28;20025;-74
2023/08/23 04:07:23;;;;;;;7.18;5.75;;;;;;;18.27;100.00;99044.28;5030300;28;20022;-74
2023/08/23 04:09:49;;;;;;;9.00;6.57;;;;;;;18.34;100.00;99050.44;5055170;28;20038;-72
2023/08/23 04:12:14;;;;;;;8.75;6.50;;;;;;;18.26;100.00;99048.09;5027162;28;20020;-73
2023/08/23 04:14:39;;;;;;;12.70;7.18;;;;;;;18.36;100.00;99053.72;5033191;28;20037;-74
2023/08/23 04:17:05;;;;;;;11.80;6.60;;;;;;;18.34;100.00;99060.56;5052792;28;20467;-73
2023/08/23 04:19:30;;;;;;;11.73;7.40;;;;;;;18.22;100.00;99059.78;5043061;28;20033;-74
2023/08/23 04:21:55;;;;;;;10.52;7.22;;;;;;;18.21;100.00;99060.84;5034899;28;20029;-74
2023/08/23 04:24:21;;;;;;;16.27;7.40;;;;;;;18.23;100.00;99055.97;5039727;28;20052;-74
2023/08/23 04:26:46;;;;;;;13.18;7.63;;;;;;;18.23;100.00;99061.44;5034068;28;20386;-74
2023/08/23 04:29:12;;;;;;;9.38;7.00;;;;;;;18.25;100.00;99064.78;5034249;28;20479;-74
2023/08/23 04:31:37;;;;;;;14.35;6.70;;;;;;;18.24;100.00;99063.13;5033766;28;20034;-74
2023/08/23 04:34:04;;;;;;;10.45;6.53;;;;;;;18.23;100.00;99073.22;5050643;28;20040;-74
2023/08/23 04:36:30;;;;;;;6.63;5.93;;;;;;;18.28;100.00;99075.22;5036071;28;20029;-73
2023/08/23 04:38:55;;;;;;;8.10;5.88;;;;;;;18.26;100.00;99067.28;5039296;28;20128;-74
2023/08/23 04:41:20;;;;;;;13.32;5.97;;;;;;;18.23;100.00;99066.91;5033986;28;20025;-74
2023/08/23 04:43:46;;;;;;;8.55;6.35;;;;;;;18.14;100.00;99063.75;5047097;28;20498;-74
2023/08/23 04:46:11;;;;;;;11.98;6.43;;;;;;;18.10;100.00;99082.59;5034253;28;20156;-74
2023/08/23 04:48:37;;;;;;;9.77;7.07;;;;;;;18.03;100.00;99090.13;5033145;28;20017;-74
2023/08/23 04:51:08;;;;;;;10.50;6.75;;;;;;;18.10;100.00;99090.81;5033195;28;20018;-73
2023/08/23 04:53:33;;;;;;;9.27;6.70;;;;;;;18.23;100.00;99089.66;5029367;28;20044;-74
2023/08/23 04:55:58;;;;;;;10.70;6.65;;;;;;;18.28;100.00;99095.22;5034403;28;20102;-74
2023/08/23 04:58:30;;;;;;;10.93;6.82;;;;;;;18.43;100.00;99096.59;5025800;28;20022;-74
2023/08/23 05:00:59;;;;;;;12.43;6.75;;;;;;;18.54;100.00;99091.03;5035289;28;20029;-74
2023/08/23 05:03:27;;;;;;;8.65;6.53;;;;;;;18.64;100.00;99070.34;5042830;28;20095;-72
2023/08/23 05:05:52;;;;;;;8.25;6.10;;;;;;;18.77;100.00;99086.50;5035282;28;20083;-73
2023/08/23 05:08:18;;;;;;;10.38;6.20;;;;;;;18.84;100.00;99084.41;5035123;28;20436;-74
2023/08/23 05:10:43;;;;;;;11.88;6.72;;;;;;;18.82;100.00;99081.91;5052280;28;20029;-74
2023/08/23 05:13:09;;;;;;;8.65;6.25;;;;;;;18.89;100.00;99064.47;5027631;28;20037;-73
2023/08/23 05:15:34;;;;;;;10.60;5.95;;;;;;;19.12;100.00;99074.41;5036484;28;20033;-73
2023/08/23 05:17:59;;;;;;;14.10;6.63;;;;;;;19.12;100.00;99074.41;5036842;28;20028;-73
2023/08/23 05:20:24;;;;;;;9.23;5.82;;;;;;;19.20;100.00;99076.69;5031240;28;20104;-73
2023/08/23 05:22:50;;;;;;;9.32;6.20;;;;;;;19.31;100.00;99072.19;5018930;28;20662;-73
2023/08/23 05:25:16;;;;;;;7.75;5.55;;;;;;;19.42;100.00;99072.06;5032944;28;20025;-72
2023/08/23 05:27:41;;;;;;;9.63;5.75;;;;;;;19.43;100.00;99070.97;5050056;28;20032;-72
2023/08/23 05:30:08;;;;;;;10.18;5.70;;;;;;;19.45;100.00;99073.47;5035784;28;20025;-74
2023/08/23 05:32:33;;;;;;;11.13;6.30;;;;;;;19.42;100.00;99068.50;5029637;28;20413;-74
2023/08/23 05:34:59;;;;;;;11.07;5.45;;;;;;;19.86;100.00;99072.09;5031871;28;20036;-71
2023/08/23 05:37:24;;;;;;;9.10;5.88;;;;;;;20.27;100.00;99067.00;5034057;28;20482;-71
2023/08/23 05:39:49;;;;;;;10.82;5.78;;;;;;;20.78;100.00;99058.41;5030967;28;20040;-71
2023/08/23 05:42:15;;;;;;;13.40;5.50;;;;;;;20.94;100.00;99051.09;5034483;28;20121;-71
2023/08/23 05:44:40;;;;;;;10.32;5.65;;;;;;;21.01;100.00;99051.66;5034022;28;20041;-72
2023/08/23 05:47:05;;;;;;;8.38;4.95;;;;;;;21.11;100.00;99043.47;5034973;28;20148;-71
2023/08/23 05:49:31;;;;;;;9.02;5.10;;;;;;;21.17;100.00;99052.59;5034071;28;20087;-74
2023/08/23 05:51:56;;;;;;;10.57;5.20;;;;;;;21.19;100.00;99075.16;5040928;28;20081;-78
2023/08/23 05:54:23;;;;;;;6.22;4.35;;;;;;;21.28;100.00;99057.06;5029649;28;20051;-78
2023/08/23 05:56:48;;;;;;;6.68;4.40;;;;;;;22.22;100.00;99054.41;5054687;28;20040;-76
2023/08/23 05:59:13;;;;;;;7.57;4.22;;;;;;;24.78;100.00;99045.19;5044434;28;20029;-75
2023/08/23 06:01:39;;;;;;;7.00;4.18;;;;;;;26.78;100.00;99038.72;5029126;28;20390;-76
2023/08/23 06:04:04;;;;;;;8.70;3.78;;;;;;;28.49;100.00;99034.91;5039634;28;20033;-77
2023/08/23 06:06:29;;;;;;;7.75;3.85;;;;;;;30.01;100.00;99039.38;5030777;28;20038;-79
2023/08/23 06:08:55;;;;;;;6.38;3.63;;;;;;;31.22;100.00;99036.47;5042265;28;20025;-76
2023/08/23 06:11:20;;;;;;;9.02;4.00;;;;;;;31.90;91.74;99046.03;5032882;28;20045;-76
2023/08/23 06:13:46;;;;;;;7.60;3.65;;;;;;;32.96;81.78;99046.47;5033382;28;20026;-77
2023/08/23 06:16:11;;;;;;;8.45;4.05;;;;;;;32.83;78.82;99043.94;5024327;28;20495;-78
2023/08/23 06:18:37;;;;;;;5.78;3.17;;;;;;;33.33;76.06;99048.53;5038060;28;20025;-80
2023/08/23 06:21:02;;;;;;;5.18;3.70;;;;;;;33.59;73.83;99043.44;5035170;28;20503;-76
2023/08/23 06:23:28;;;;;;;6.85;3.65;;;;;;;32.88;74.93;99046.53;5031129;28;20048;-76
2023/08/23 06:26:02;;;;;;;8.82;3.45;;;;;;;34.01;68.65;99039.53;5033767;28;20027;-79
2023/08/23 06:28:28;;;;;;;9.43;3.90;;;;;;;33.37;69.52;99052.28;5028939;28;20030;-76
2023/08/23 06:30:55;;;;;;;9.07;3.90;;;;;;;33.48;70.72;99035.78;5026394;28;20533;-76
2023/08/23 06:33:21;;;;;;;5.45;3.45;;;;;;;33.49;68.52;99037.44;5040445;28;20108;-78
2023/08/23 06:35:46;;;;;;;8.80;3.30;;;;;;;34.69;65.52;99044.41;5035799;28;20509;-77
2023/08/23 06:38:15;;;;;;;8.77;3.50;;;;;;;35.73;60.99;99036.66;5031877;28;20036;-80
2023/08/23 06:40:40;;;;;;;4.13;3.03;;;;;;;36.85;58.02;99039.91;5027905;28;20075;-78
2023/08/23 06:43:06;;;;;;;5.68;3.40;;;;;;;35.68;57.58;99033.31;5036906;28;20437;-78
2023/08/23 06:45:31;;;;;;;5.55;3.13;;;;;;;35.08;62.26;99030.59;5051127;28;20044;-80
2023/08/23 06:47:57;;;;;;;3.50;2.88;;;;;;;36.53;60.19;99019.53;5042081;28;20113;-81
2023/08/23 06:50:22;;;;;;;8.65;3.00;;;;;;;36.56;57.05;99033.72;5031178;28;20540;-80
2023/08/23 06:52:47;;;;;;;8.15;3.20;;;;;;;37.34;55.75;99036.38;5049039;28;20014;-79
2023/08/23 06:55:13;;;;;;;8.05;3.17;;;;;;;38.35;52.48;99033.06;5052384;28;20033;-83
2023/08/23 06:57:39;;;;;;;8.77;2.88;;;;;;;38.00;53.39;99041.91;5035293;28;20037;-79
2023/08/23 07:00:05;;;;;;;6.38;3.08;;;;;;;38.25;51.16;99045.06;5048678;28;20029;-79
2023/08/23 07:02:30;;;;;;;5.70;2.83;;;;;;;37.91;52.18;99044.94;5031560;28;20187;-80
2023/08/23 07:04:56;;;;;;;4.18;2.70;;;;;;;38.41;51.17;99033.53;5035147;28;20051;-80
2023/08/23 07:07:22;;;;;;;6.53;2.83;;;;;;;37.86;50.89;99036.81;5031984;28;20189;-82
2023/08/23 07:09:49;;;;;;;6.18;2.80;;;;;;;38.84;50.55;99032.06;5046547;28;20059;-83
2023/08/23 07:12:14;;;;;;;8.02;2.75;;;;;;;38.70;51.03;99034.72;5045495;28;20093;-84
2023/08/23 07:14:40;;;;;;;5.80;2.65;;;;;;;39.54;49.92;99043.66;5029690;28;20053;-86
2023/08/23 07:17:05;;;;;;;5.95;2.58;;;;;;;39.64;47.76;99043.78;5047589;28;20036;-77
2023/08/23 07:19:30;;;;;;;4.03;2.60;;;;;;;38.97;48.05;99050.41;5022499;28;20030;-74
2023/08/23 07:21:58;;;;;;;4.32;2.60;;;;;;;38.96;49.70;99043.16;5031590;28;20116;-76
2023/08/23 07:24:23;;;;;;;4.07;2.40;;;;;;;39.43;48.94;99050.09;5034143;28;20033;-76
2023/08/23 07:26:49;;;;;;;3.08;2.00;;;;;;;39.90;48.24;99038.28;5032556;28;20537;-75
2023/08/23 07:29:16;;;;;;;5.03;2.40;;;;;;;41.12;46.27;99046.13;5029985;28;20336;-75
2023/08/23 07:31:42;;;;;;;6.10;2.30;;;;;;;40.82;46.55;99042.81;5029424;28;20030;-77
2023/08/23 07:34:07;;;;;;;4.82;2.50;;;;;;;40.00;46.63;99055.34;5029317;28;20057;-73
2023/08/23 07:36:32;;;;;;;4.45;2.63;;;;;;;38.79;47.30;99044.53;5031189;28;20029;-74
2023/08/23 07:38:58;;;;;;;10.77;2.47;;;;;;;40.28;46.54;99051.09;5030363;28;20029;-77
2023/08/23 07:41:23;;;;;;;4.13;2.03;;;;;;;40.22;47.27;99053.50;5026139;28;20096;-72
2023/08/23 07:43:48;;;;;;;3.77;2.23;;;;;;;40.83;46.03;99033.09;5029870;28;20095;-77
2023/08/23 07:46:14;;;;;;;4.55;1.98;;;;;;;40.72;45.35;99039.56;5034415;28;20295;-77
2023/08/23 07:48:41;;;;;;;6.73;2.00;;;;;;;41.27;44.96;99051.84;5034583;28;20098;-77
2023/08/23 07:51:07;;;;;;;3.35;2.00;;;;;;;42.11;43.75;99054.25;5036183;28;20298;-76
2023/08/23 07:53:33;;;;;;;6.28;2.00;;;;;;;41.43;43.50;99040.09;5037616;28;20525;-77
2023/08/23 07:55:58;;;;;;;4.47;2.10;;;;;;;39.44;45.31;99063.03;5045398;28;20040;-77
2023/08/23 07:58:24;;;;;;;6.07;1.83;;;;;;;41.12;44.01;99043.31;5023260;28;20426;-76
2023/08/23 08:00:51;;;;;;;5.63;2.35;;;;;;;41.18;43.62;99055.88;5061298;28;20151;-76
2023/08/23 08:03:16;;;;;;;3.00;2.00;;;;;;;41.06;43.97;99053.41;5033622;28;20036;-74
2023/08/23 08:05:41;;;;;;;3.53;2.00;;;;;;;42.01;42.64;99055.91;5044598;28;20021;-78
2023/08/23 08:08:07;;;;;;;4.10;2.40;;;;;;;42.92;41.37;99057.19;5031798;28;20026;-76
2023/08/23 08:10:32;;;;;;;6.05;1.95;;;;;;;42.92;40.77;99065.72;5029584;28;20402;-73
2023/08/23 08:13:01;;;;;;;3.50;2.17;;;;;;;40.21;43.74;99066.03;5031459;28;20079;-75
2023/08/23 08:15:26;;;;;;;5.38;2.42;;;;;;;40.97;43.76;99062.28;5029177;28;20036;-74
2023/08/23 08:17:52;;;;;;;6.97;2.50;;;;;;;41.56;43.67;99058.38;5017268;28;20034;-73
2023/08/23 08:20:23;;;;;;;9.40;2.17;;;;;;;42.37;42.54;99059.47;5026357;28;20036;-77
2023/08/23 08:22:48;;;;;;;4.22;2.10;;;;;;;42.69;41.70;99062.16;5032330;28;20025;-76
2023/08/23 08:25:13;;;;;;;4.03;2.08;;;;;;;41.76;42.71;99050.22;5042277;28;20027;-78
2023/08/23 08:27:39;;;;;;;4.90;2.23;;;;;;;40.79;43.54;99049.28;5055896;28;20131;-76
2023/08/23 08:30:05;;;;;;;5.88;2.13;;;;;;;41.64;41.98;99059.19;5033689;28;21185;-74
2023/08/23 08:32:30;;;;;;;6.20;2.50;;;;;;;42.66;40.75;99056.50;5035772;28;20063;-74
2023/08/23 08:34:56;;;;;;;6.23;2.10;;;;;;;42.51;41.44;99057.78;5038984;28;20025;-82
2023/08/23 08:37:22;;;;;;;3.27;2.17;;;;;;;43.96;38.49;99052.28;5032560;28;20435;-80
2023/08/23 08:39:49;;;;;;;4.50;2.10;;;;;;;43.23;38.97;99041.97;5052086;28;20280;-77
2023/08/23 08:42:15;;;;;;;5.13;1.90;;;;;;;43.19;39.11;99049.72;5041786;28;20459;-75
2023/08/23 08:44:40;;;;;;;5.90;2.05;;;;;;;43.12;40.43;99052.56;5039309;28;20032;-74
2023/08/23 08:47:05;;;;;;;3.83;1.70;;;;;;;42.99;39.96;99049.41;5031603;28;20029;-75
2023/08/23 08:49:31;;;;;;;5.40;1.97;;;;;;;42.81;40.96;99049.50;5033840;28;20036;-83
2023/08/23 08:51:58;;;;;;;5.25;2.15;;;;;;;42.16;41.59;99045.28;5036081;28;20084;-80
2023/08/23 08:54:24;;;;;;;;;;;;;;;42.37;40.16;99048.09;5046026;28;20026;-87
2023/08/23 08:56:51;;;;;;;5.18;1.80;;;;;;;42.81;39.62;99058.06;5046526;28;20267;-89
2023/08/23 08:59:17;;;;;;;7.63;1.87;;;;;;;42.19;41.44;99041.63;5056109;28;20505;-81
2023/08/23 09:01:45;;;;;;;6.63;2.10;;;;;;;42.92;40.07;99057.19;5037891;28;20041;-78
2023/08/23 09:04:11;;;;;;;5.45;1.98;;;;;;;44.39;38.64;99045.38;5042751;28;20159;-77
2023/08/23 09:06:38;;;;;;;13.05;2.15;;;;;;;44.38;37.03;99061.66;5049990;28;20494;-80
2023/08/23 09:09:04;;;;;;;7.03;2.35;;;;;;;43.96;37.54;99046.59;5037491;28;20036;-81
2023/08/23 09:11:32;;;;;;;12.70;2.22;;;;;;;44.39;37.02;99051.88;5043634;28;20383;-77
2023/08/23 09:13:58;;;;;;;10.43;2.22;;;;;;;45.10;36.89;99057.03;5064174;28;20045;-81
2023/08/23 09:16:24;;;;;;;7.28;2.20;;;;;;;44.79;38.16;99057.09;5041082;28;20040;-79
2023/08/23 09:18:49;;;;;;;4.03;1.92;;;;;;;45.65;36.06;99050.88;5020676;28;20079;-80
2023/08/23 09:21:15;;;;;;;10.93;1.90;;;;;;;44.99;36.35;99051.47;5030870;28;20463;-80
2023/08/23 09:23:40;;;;;;;4.85;1.90;;;;;;;46.42;35.58;99062.53;5054165;28;20117;-82
2023/08/23 09:26:07;;;;;;;3.20;1.55;;;;;;;47.12;35.15;99065.09;5053113;28;20034;-83
2023/08/23 09:28:32;;;;;;;8.25;1.85;;;;;;;46.03;34.34;99056.31;5047065;28;20060;-82
2023/08/23 09:31:01;;;;;;;7.90;2.03;;;;;;;46.21;35.01;99053.09;5041750;28;20399;-79
2023/08/23 09:33:27;;;;;;;5.80;2.00;;;;;;;46.31;34.48;99054.97;5042046;28;20549;-81
2023/08/23 09:35:54;;;;;;;6.00;1.70;;;;;;;47.03;33.27;99053.41;5032622;28;20034;-79
2023/08/23 09:38:21;;;;;;;3.53;1.88;;;;;;;46.99;34.42;99059.22;5046738;28;20071;-83
2023/08/23 09:40:47;;;;;;;4.57;1.50;;;;;;;47.02;34.48;99057.53;5049999;28;20033;-83
2023/08/23 09:43:16;;;;;;;8.80;1.50;;;;;;;47.42;34.14;99054.53;5062185;28;20502;-80
2023/08/23 09:45:41;;;;;;;3.28;1.55;;;;;;;46.19;34.91;99049.06;5048370;28;20506;-82
2023/08/23 09:48:10;;;;;;;4.22;1.67;;;;;;;46.60;34.99;99040.06;5038241;28;20029;-87
2023/08/23 09:50:35;;;;;;;4.05;1.75;;;;;;;46.14;34.65;99036.06;5054887;28;20024;-82
2023/08/23 09:53:06;;;;;;;3.17;1.52;;;;;;;46.53;34.90;99034.47;5058672;28;20023;-82
2023/08/23 09:55:33;;;;;;;3.92;1.70;;;;;;;47.64;33.40;99026.16;5050553;28;20029;-85
2023/08/23 09:57:59;;;;;;;5.35;1.60;;;;;;;48.53;33.04;99019.97;5048535;28;20032;-85
2023/08/23 10:00:25;;;;;;;;;;;;;;;48.10;33.04;99023.28;5046435;28;20131;-81
2023/08/23 10:02:52;;;;;;;2.97;1.70;;;;;;;48.34;31.71;99015.22;5043326;28;20026;-82
2023/08/23 10:05:18;;;;;;;4.22;1.85;;;;;;;49.17;31.81;99016.38;5054561;28;20053;-78
2023/08/23 10:07:44;;;;;;;3.97;1.67;;;;;;;48.97;32.04;99007.97;5031705;28;20353;-81
2023/08/23 10:10:10;;;;;;;2.25;1.60;;;;;;;48.22;31.94;99019.69;5038312;28;20104;-76
2023/08/23 10:12:38;;;;;;;4.93;1.80;;;;;;;47.69;31.66;99021.91;5031128;28;20017;-75
2023/08/23 10:15:06;;;;;;;3.33;1.80;;;;;;;46.69;32.04;99025.16;5028785;28;20025;-74
2023/08/23 10:17:32;;;;;;;4.10;1.60;;;;;;;46.84;32.02;99026.44;5027459;28;20039;-75
2023/08/23 10:19:58;;;;;;;3.33;1.90;;;;;;;48.63;31.52;99023.78;5025247;28;20502;-75
2023/08/23 10:22:24;;;;;;;2.22;1.42;;;;;;;47.82;30.85;99008.50;5035404;28;20033;-75
2023/08/23 10:24:50;;;;;;;3.75;1.90;;;;;;;46.66;32.05;99021.09;5032598;28;20044;-75
2023/08/23 10:27:18;;;;;;;3.28;1.45;;;;;;;48.45;31.28;99013.66;5030794;28;20433;-75
2023/08/23 10:29:50;;;;;;;4.78;1.58;;;;;;;46.94;31.52;99013.13;5029005;28;20033;-76
2023/08/23 10:32:15;;;;;;;4.55;1.70;;;;;;;46.15;32.03;99014.81;5039682;28;20025;-76
2023/08/23 10:34:40;;;;;;;4.20;1.57;;;;;;;47.40;31.85;99011.19;5024642;28;20033;-76
2023/08/23 10:37:16;;;;;;;3.43;1.80;;;;;;;46.75;31.75;99011.94;5030968;28;20284;-75
2023/08/23 10:39:47;;;;;;;5.20;1.67;;;;;;;46.95;31.71;99020.47;5030878;28;20275;-76
2023/08/23 10:42:13;;;;;;;4.05;1.60;;;;;;;46.95;32.34;99014.72;5029295;28;20080;-75
2023/08/23 10:44:46;;;;;;;3.42;1.67;;;;;;;47.47;31.61;99015.97;5027850;28;20059;-75
2023/08/23 10:47:14;;;;;;;4.43;1.75;;;;;;;47.98;31.26;99010.50;5042187;28;20116;-75
2023/08/23 10:49:40;;;;;;;3.65;1.67;;;;;;;47.88;31.45;99008.75;5031551;28;20021;-75
2023/08/23 10:52:07;;;;;;;9.68;1.48;;;;;;;48.46;30.93;99014.44;5023123;28;20076;-75
2023/08/23 10:54:33;;;;;;;2.67;1.50;;;;;;;49.65;30.10;99008.59;5030550;28;20121;-75
2023/08/23 10:56:58;;;;;;;3.65;1.92;;;;;;;47.32;31.28;99010.59;5024823;28;20041;-74
2023/08/23 10:59:24;;;;;;;1.70;1.50;;;;;;;48.42;29.81;99020.31;5022792;28;20040;-76
2023/08/23 11:01:50;;;;;;;3.83;1.60;;;;;;;47.86;30.22;99012.06;5033061;28;20506;-75
2023/08/23 11:04:16;;;;;;;2.08;1.40;;;;;;;49.02;30.11;99011.06;5031623;28;20029;-76
2023/08/23 11:06:41;;;;;;;1.90;1.20;;;;;;;50.40;28.76;99011.63;5051545;28;20060;-78
2023/08/23 11:09:07;;;;;;;2.85;1.58;;;;;;;50.68;28.54;99003.97;5039211;28;20108;-77
2023/08/23 11:11:32;;;;;;;3.27;1.80;;;;;;;50.40;27.65;99005.88;5034666;28;20539;-78
2023/08/23 11:13:57;;;;;;;4.63;1.63;;;;;;;47.84;29.41;99006.75;5040272;28;20041;-78
2023/08/23 11:16:23;;;;;;;6.27;2.00;;;;;;;47.21;31.44;99001.44;5042027;28;20294;-78
2023/08/23 11:18:50;;;;;;;3.92;1.70;;;;;;;44.08;33.07;99004.56;5034531;28;20276;-74
2023/08/23 11:21:16;;;;;;;3.00;2.00;;;;;;;45.64;32.79;98991.25;5022976;28;20018;-76
2023/08/23 11:23:41;;;;;;;2.72;1.35;;;;;;;47.63;31.92;98995.84;5035563;28;20483;-76
2023/08/23 11:26:07;;;;;;;4.88;1.52;;;;;;;50.01;29.97;99008.13;5024636;28;20044;-75